Time;durP1;ratioP1;P1;durP2;ratioP2;P2;SDS_P1;SDS_P2;PMS_P1;PMS_P2;Temp;Humidity;BMP_temperature;BMP_pressure;BME280_temperature;BME280_humidity;BME280_pressure;Samples;Min_cycle;Max_cycle;Signal;HPM_P1;HPM_P2
2023/12/16 00:01:37;;;;;;;22.17;5.65;;;;;;;7.35;96.17;103755.97;4898718;29;20145;-81
2023/12/16 00:04:02;;;;;;;21.15;6.63;;;;;;;7.35;95.92;103755.97;4901126;29;20020;-81
2023/12/16 00:06:27;;;;;;;23.42;6.47;;;;;;;7.35;95.08;103750.63;4883097;29;20028;-81
2023/12/16 00:08:52;;;;;;;20.65;6.90;;;;;;;7.35;95.47;103748.81;4884119;29;20080;-81
2023/12/16 00:11:18;;;;;;;23.52;7.45;;;;;;;7.37;96.61;103766.66;4897443;29;20472;-81
2023/12/16 00:13:43;;;;;;;25.20;6.85;;;;;;;7.33;95.31;103755.97;4883800;29;20024;-81
2023/12/16 00:16:08;;;;;;;21.58;6.70;;;;;;;7.33;95.21;103761.31;4900626;29;20438;-81
2023/12/16 00:18:36;;;;;;;23.40;7.10;;;;;;;7.34;94.99;103760.41;4901213;29;20028;-81
2023/12/16 00:21:01;;;;;;;18.65;6.85;;;;;;;7.33;95.16;103763.97;4886899;29;20105;-81
2023/12/16 00:23:30;;;;;;;20.45;6.45;;;;;;;7.32;95.87;103756.88;4881787;29;20115;-81
2023/12/16 00:25:55;;;;;;;23.30;6.13;;;;;;;7.34;95.03;103759.53;4895942;29;20035;-81
2023/12/16 00:28:20;;;;;;;19.83;6.13;;;;;;;7.34;94.78;103751.50;4903442;29;20024;-81
2023/12/16 00:30:46;;;;;;;20.27;7.18;;;;;;;7.34;95.55;103744.34;4900548;29;20118;-81
2023/12/16 00:33:11;;;;;;;19.60;6.22;;;;;;;7.35;94.32;103746.13;4900574;29;20024;-81
2023/12/16 00:35:36;;;;;;;22.08;6.35;;;;;;;7.36;94.50;103741.66;4899821;29;20029;-81
2023/12/16 00:38:02;;;;;;;22.27;6.25;;;;;;;7.34;93.91;103747.03;4903139;29;20643;-81
2023/12/16 00:40:27;;;;;;;24.15;6.65;;;;;;;7.35;94.71;103740.78;4882441;29;20032;-81
2023/12/16 00:42:52;;;;;;;22.55;5.25;;;;;;;7.35;93.99;103743.47;4887334;29;20060;-81
2023/12/16 00:45:18;;;;;;;24.08;6.30;;;;;;;7.35;93.50;103734.56;4902646;29;20033;-81
2023/12/16 00:47:43;;;;;;;22.77;6.65;;;;;;;7.34;93.81;103733.66;4900677;29;20070;-81
2023/12/16 00:50:09;;;;;;;19.02;5.90;;;;;;;7.34;93.83;103717.59;4876849;29;20020;-81
2023/12/16 00:52:34;;;;;;;20.95;6.30;;;;;;;7.34;93.04;103732.78;4905414;29;20020;-81
2023/12/16 00:55:00;;;;;;;19.15;5.88;;;;;;;7.32;93.77;103735.47;4896828;29;20039;-81
2023/12/16 00:57:25;;;;;;;20.75;5.93;;;;;;;7.31;93.19;103738.19;4886133;29;20540;-81
2023/12/16 00:59:50;;;;;;;21.10;6.28;;;;;;;7.31;93.87;103741.72;4882765;29;20492;-81
2023/12/16 01:02:17;;;;;;;16.83;5.55;;;;;;;7.33;94.52;103731.88;4888190;29;20103;-81
2023/12/16 01:04:42;;;;;;;20.55;6.07;;;;;;;7.33;93.70;103733.69;4889276;29;20032;-81
2023/12/16 01:07:08;;;;;;;23.77;6.18;;;;;;;7.31;93.47;103733.69;4903831;29;20092;-81
2023/12/16 01:09:34;;;;;;;19.15;5.15;;;;;;;7.30;93.46;103737.28;4897980;29;20035;-81
2023/12/16 01:11:59;;;;;;;17.15;5.15;;;;;;;7.30;93.56;103739.94;4881712;29;20030;-81
2023/12/16 01:14:24;;;;;;;20.85;5.20;;;;;;;7.30;93.72;103745.28;4882163;29;20456;-82
2023/12/16 01:16:50;;;;;;;23.90;6.03;;;;;;;7.28;93.25;103739.09;4883903;29;20106;-80
2023/12/16 01:19:15;;;;;;;21.90;5.70;;;;;;;7.29;94.03;103738.19;4893737;29;20036;-80
2023/12/16 01:21:42;;;;;;;21.55;6.13;;;;;;;7.29;93.46;103732.84;4904861;29;20036;-80
2023/12/16 01:24:07;;;;;;;19.45;5.72;;;;;;;7.26;93.41;103727.53;4907010;29;20037;-80
2023/12/16 01:26:32;;;;;;;22.15;6.03;;;;;;;7.27;93.27;103736.44;4892971;29;20043;-79
2023/12/16 01:28:58;;;;;;;18.33;4.97;;;;;;;7.25;93.74;103738.25;4885592;29;20059;-81
2023/12/16 01:31:23;;;;;;;25.23;5.97;;;;;;;7.24;93.35;103737.34;4902494;29;20036;-80
2023/12/16 01:33:48;;;;;;;18.05;4.88;;;;;;;7.23;92.68;103735.56;4915343;29;20091;-79
2023/12/16 01:36:13;;;;;;;23.02;5.50;;;;;;;7.22;93.38;103728.47;4908948;29;20322;-80
2023/12/16 01:38:39;;;;;;;27.42;6.18;;;;;;;7.24;93.27;103726.66;4914938;29;20045;-80
2023/12/16 01:41:05;;;;;;;19.30;5.97;;;;;;;7.24;94.36;103720.44;4911528;29;20032;-80
2023/12/16 01:43:30;;;;;;;21.13;6.20;;;;;;;7.23;93.32;103718.66;4913098;29;20368;-81
2023/12/16 01:46:01;;;;;;;23.00;6.20;;;;;;;7.23;93.22;103724.00;4904979;29;20116;-81
2023/12/16 01:48:27;;;;;;;15.73;5.45;;;;;;;7.21;93.50;103721.34;4909054;29;20057;-81
2023/12/16 01:50:52;;;;;;;21.13;5.57;;;;;;;7.20;93.04;103727.59;4912009;29;20441;-81
2023/12/16 01:53:18;;;;;;;20.85;5.63;;;;;;;7.19;93.71;103728.53;4910154;29;20040;-79
2023/12/16 01:55:43;;;;;;;22.15;5.78;;;;;;;7.19;93.51;103725.84;4912925;29;20040;-80
2023/12/16 01:58:09;;;;;;;19.30;5.15;;;;;;;7.19;93.51;103720.50;4903355;29;20081;-80
2023/12/16 02:00:34;;;;;;;24.80;5.57;;;;;;;7.18;93.24;103718.72;4907233;29;20044;-81
2023/12/16 02:03:00;;;;;;;23.30;6.03;;;;;;;7.18;93.08;103730.28;4906543;29;20036;-81
2023/12/16 02:05:29;;;;;;;20.60;5.18;;;;;;;7.18;94.08;103726.75;4883231;29;20029;-81
2023/12/16 02:07:54;;;;;;;20.90;5.78;;;;;;;7.19;92.98;103723.16;4890531;29;20122;-80
2023/12/16 02:10:19;;;;;;;25.67;5.95;;;;;;;7.18;92.63;103726.75;4894443;29;20062;-80
2023/12/16 02:12:45;;;;;;;20.30;5.38;;;;;;;7.17;92.98;103725.88;4911528;29;20039;-80
2023/12/16 02:15:10;;;;;;;22.98;5.65;;;;;;;7.15;92.28;103722.31;4892129;29;20334;-79
2023/12/16 02:17:35;;;;;;;22.98;5.97;;;;;;;7.15;92.04;103726.78;4898075;29;20028;-81
2023/12/16 02:20:01;;;;;;;22.75;5.78;;;;;;;7.12;92.47;103721.47;4921318;29;20046;-80
2023/12/16 02:22:29;;;;;;;17.30;4.97;;;;;;;7.07;92.86;103720.63;4905962;29;20029;-81
2023/12/16 02:24:55;;;;;;;15.45;4.97;;;;;;;7.04;92.51;103718.88;4913442;29;20035;-81
2023/12/16 02:27:20;;;;;;;24.50;6.32;;;;;;;7.01;92.92;103724.25;4913693;29;20024;-81
2023/12/16 02:29:45;;;;;;;18.77;5.30;;;;;;;6.97;92.90;103714.53;4896774;29;20131;-80
2023/12/16 02:32:11;;;;;;;17.33;5.47;;;;;;;6.94;92.59;103711.88;4895585;29;20017;-82
2023/12/16 02:34:36;;;;;;;22.20;6.60;;;;;;;6.90;92.59;103713.72;4895387;29;20099;-80
2023/12/16 02:37:05;;;;;;;22.65;6.03;;;;;;;6.88;92.65;103722.63;4912848;29;20051;-79
2023/12/16 02:39:32;;;;;;;19.00;5.70;;;;;;;6.85;92.74;103722.69;4911157;29;20052;-80
2023/12/16 02:41:57;;;;;;;19.67;5.68;;;;;;;6.84;93.28;103719.13;4891042;29;20047;-79
2023/12/16 02:44:23;;;;;;;22.73;6.47;;;;;;;6.82;93.37;103732.53;4894830;29;20120;-79
2023/12/16 02:46:48;;;;;;;16.88;5.68;;;;;;;6.82;93.88;103734.28;4911092;29;20103;-80
2023/12/16 02:49:13;;;;;;;16.83;5.63;;;;;;;6.80;94.25;103745.00;4894401;29;20046;-81
2023/12/16 02:51:39;;;;;;;19.95;6.25;;;;;;;6.80;93.39;103747.66;4910813;29;20040;-81
2023/12/16 02:54:04;;;;;;;21.60;5.60;;;;;;;6.77;93.54;103738.81;4913913;29;20025;-80
2023/12/16 02:56:29;;;;;;;23.10;5.95;;;;;;;6.77;93.79;103741.50;4899149;29;20065;-81
2023/12/16 02:58:54;;;;;;;21.08;6.03;;;;;;;6.78;93.95;103735.25;4898595;29;20513;-80
2023/12/16 03:01:20;;;;;;;18.77;5.75;;;;;;;6.77;94.12;103731.66;4894315;29;20032;-81
2023/12/16 03:03:45;;;;;;;24.23;6.35;;;;;;;6.75;94.28;103717.44;4895120;29;20040;-80
2023/12/16 03:06:10;;;;;;;20.77;5.50;;;;;;;6.74;94.49;103733.50;4899422;29;20072;-80
2023/12/16 03:08:36;;;;;;;18.70;5.10;;;;;;;6.73;94.78;103729.94;4911002;29;20032;-79
2023/12/16 03:11:02;;;;;;;22.38;6.50;;;;;;;6.72;94.59;103721.91;4899709;29;20480;-80
2023/12/16 03:13:27;;;;;;;24.20;6.28;;;;;;;6.70;94.64;103721.06;4917215;29;20115;-80
2023/12/16 03:15:53;;;;;;;20.30;5.78;;;;;;;6.68;95.15;103725.53;4916054;29;20039;-80
2023/12/16 03:18:18;;;;;;;22.90;5.93;;;;;;;6.69;95.15;103714.84;4899281;29;20079;-81
2023/12/16 03:20:43;;;;;;;21.08;5.35;;;;;;;6.69;95.15;103721.97;4899837;29;20024;-81
2023/12/16 03:23:09;;;;;;;22.08;6.10;;;;;;;6.72;94.64;103727.28;4917638;29;20084;-80
2023/12/16 03:25:35;;;;;;;21.95;5.93;;;;;;;6.68;94.63;103717.50;4914278;29;20028;-80
2023/12/16 03:28:00;;;;;;;20.33;6.60;;;;;;;6.68;95.20;103728.19;4892106;29;20032;-80
2023/12/16 03:30:26;;;;;;;19.48;6.57;;;;;;;6.69;94.85;103727.31;4897224;29;20034;-80
2023/12/16 03:32:51;;;;;;;23.77;6.32;;;;;;;6.69;95.06;103713.94;4916729;29;20038;-79
2023/12/16 03:35:16;;;;;;;23.17;6.47;;;;;;;6.72;94.57;103719.25;4897756;29;20033;-81
2023/12/16 03:37:42;;;;;;;23.30;6.70;;;;;;;6.71;95.13;103717.50;4916555;29;20112;-79
2023/12/16 03:40:08;;;;;;;20.08;5.90;;;;;;;6.71;95.16;103731.75;4899436;29;20035;-82
2023/12/16 03:42:33;;;;;;;21.60;5.85;;;;;;;6.73;94.98;103727.25;4910551;29;20057;-80
2023/12/16 03:44:59;;;;;;;22.67;6.38;;;;;;;6.72;95.05;103736.19;4910603;29;20089;-81
2023/12/16 03:47:24;;;;;;;20.15;6.55;;;;;;;6.73;95.63;103729.06;4895306;29;20021;-82
2023/12/16 03:49:49;;;;;;;23.85;6.32;;;;;;;6.74;95.29;103731.72;4915210;29;20036;-81
2023/12/16 03:52:15;;;;;;;27.15;6.00;;;;;;;6.73;95.62;103721.03;4899751;29;20104;-80
2023/12/16 03:54:40;;;;;;;28.67;6.60;;;;;;;6.74;95.04;103731.72;4898313;29;20032;-80
2023/12/16 03:57:06;;;;;;;19.35;5.80;;;;;;;6.74;95.62;103731.72;4914811;29;20028;-80
2023/12/16 03:59:31;;;;;;;24.67;6.30;;;;;;;6.73;95.86;103729.94;4888060;29;20139;-81
2023/12/16 04:01:56;;;;;;;22.98;6.05;;;;;;;6.75;95.83;103738.84;4915674;29;20025;-80
2023/12/16 04:04:22;;;;;;;17.40;5.50;;;;;;;6.75;96.00;103725.47;4909132;29;20119;-79
2023/12/16 04:06:47;;;;;;;26.85;7.65;;;;;;;6.76;96.08;103726.34;4907434;29;20030;-80
2023/12/16 04:09:12;;;;;;;22.95;6.32;;;;;;;6.77;96.63;103726.31;4890406;29;20135;-81
2023/12/16 04:11:46;;;;;;;21.00;5.20;;;;;;;6.78;96.66;103728.09;4913218;29;20036;-82
2023/12/16 04:14:11;;;;;;;21.08;5.80;;;;;;;6.80;95.98;103728.09;4895423;29;20039;-79
2023/12/16 04:16:37;;;;;;;21.42;6.75;;;;;;;6.81;96.54;103736.09;4897959;29;20032;-79
2023/12/16 04:19:02;;;;;;;22.50;6.63;;;;;;;6.82;96.55;103736.97;4907961;29;20029;-82
2023/12/16 04:21:27;;;;;;;18.73;5.78;;;;;;;6.83;96.51;103728.91;4921190;29;20125;-81
2023/12/16 04:23:53;;;;;;;24.13;7.05;;;;;;;6.83;96.92;103718.22;4904778;29;20043;-81
2023/12/16 04:26:18;;;;;;;17.67;5.35;;;;;;;6.87;96.85;103727.13;4919495;29;20104;-80
2023/12/16 04:28:43;;;;;;;19.58;5.38;;;;;;;6.87;97.00;103732.47;4916400;29;20036;-81
2023/12/16 04:31:13;;;;;;;22.50;6.45;;;;;;;6.87;97.42;103729.78;4895573;29;20040;-80
2023/12/16 04:33:38;;;;;;;;;;;;;;;6.93;98.03;103719.00;4897871;29;20027;-80
2023/12/16 04:36:04;;;;;;;21.63;6.30;;;;;;;6.86;97.45;103733.34;4891607;29;19908;-82
2023/12/16 04:38:29;;;;;;;23.48;6.28;;;;;;;6.83;97.49;103714.69;4893961;29;20128;-81
2023/12/16 04:40:55;;;;;;;21.45;5.78;;;;;;;6.82;98.34;103728.94;4910976;29;20218;-80
2023/12/16 04:43:20;;;;;;;26.60;6.82;;;;;;;6.81;98.04;103717.38;4897903;29;20030;-82
2023/12/16 04:45:46;;;;;;;20.60;5.18;;;;;;;6.82;97.83;103708.47;4910923;29;20028;-82
2023/12/16 04:48:12;;;;;;;20.95;6.07;;;;;;;6.80;97.99;103710.25;4893598;29;20024;-79
2023/12/16 04:50:37;;;;;;;18.70;5.65;;;;;;;6.81;98.04;103711.16;4910157;29;20039;-80
2023/12/16 04:53:02;;;;;;;27.15;6.55;;;;;;;6.78;98.12;103711.19;4913989;29;20122;-81
2023/12/16 04:55:28;;;;;;;22.92;6.50;;;;;;;6.76;98.27;103702.28;4911031;29;20086;-80
2023/12/16 04:57:53;;;;;;;23.48;5.75;;;;;;;6.72;98.29;103706.78;4915476;29;20035;-80
2023/12/16 05:00:19;;;;;;;21.45;5.25;;;;;;;6.72;98.37;103713.91;4913341;29;20062;-81
2023/12/16 05:02:44;;;;;;;19.13;5.28;;;;;;;6.68;98.27;103709.50;4920088;29;20099;-80
2023/12/16 05:05:09;;;;;;;21.52;5.93;;;;;;;6.66;98.93;103706.84;4897924;29;20030;-80
2023/12/16 05:07:36;;;;;;;20.63;5.68;;;;;;;6.64;98.88;103704.19;4899860;29;20135;-81
2023/12/16 05:10:02;;;;;;;26.63;7.05;;;;;;;6.61;98.96;103720.25;4913983;29;20020;-80
2023/12/16 05:12:27;;;;;;;25.73;6.75;;;;;;;6.57;99.06;103723.84;4913754;29;20522;-82
2023/12/16 05:14:52;;;;;;;26.33;6.00;;;;;;;6.55;99.34;103717.66;4912859;29;20043;-80
2023/12/16 05:17:19;;;;;;;20.80;6.78;;;;;;;6.53;99.52;103719.47;4905982;29;20032;-81
2023/12/16 05:19:45;;;;;;;22.20;6.68;;;;;;;6.52;99.66;103719.47;4905368;29;20028;-80
2023/12/16 05:22:10;;;;;;;23.65;5.75;;;;;;;6.50;99.63;103727.50;4910861;29;20099;-80
2023/12/16 05:24:35;;;;;;;21.90;5.68;;;;;;;6.49;99.77;103728.41;4915087;29;20059;-80
2023/12/16 05:27:01;;;;;;;20.52;6.15;;;;;;;6.46;99.89;103726.66;4893099;29;20168;-81
2023/12/16 05:29:29;;;;;;;20.55;6.00;;;;;;;6.45;100.00;103734.69;4871137;29;20128;-81
2023/12/16 05:31:54;;;;;;;25.50;6.35;;;;;;;6.42;100.00;103734.72;4891110;29;20492;-81
2023/12/16 05:34:19;;;;;;;25.40;6.40;;;;;;;6.41;100.00;103736.50;4881275;29;20060;-82
2023/12/16 05:36:47;;;;;;;22.33;6.32;;;;;;;6.39;100.00;103727.59;4885750;29;20176;-81
2023/12/16 05:39:12;;;;;;;21.98;5.63;;;;;;;6.38;100.00;103727.63;4893058;29;20021;-81
2023/12/16 05:41:38;;;;;;;22.35;5.30;;;;;;;6.38;100.00;103730.28;4881418;29;20039;-81
2023/12/16 05:44:03;;;;;;;21.85;5.95;;;;;;;6.35;100.00;103727.66;4877880;29;20029;-81
2023/12/16 05:46:28;;;;;;;20.13;5.65;;;;;;;6.34;100.00;103734.78;4899204;29;20420;-81
2023/12/16 05:48:54;;;;;;;21.42;5.70;;;;;;;6.33;100.00;103743.69;4894344;29;20029;-81
2023/12/16 05:51:19;;;;;;;24.38;6.18;;;;;;;6.29;100.00;103737.47;4890193;29;20032;-82
2023/12/16 05:53:44;;;;;;;22.70;6.45;;;;;;;6.27;100.00;103735.75;4901552;29;20557;-81
2023/12/16 05:56:10;;;;;;;23.70;5.80;;;;;;;6.25;100.00;103729.50;4880964;29;20025;-81
2023/12/16 05:58:35;;;;;;;23.15;5.90;;;;;;;6.24;100.00;103725.97;4900619;29;20045;-81
2023/12/16 06:01:01;;;;;;;23.45;5.90;;;;;;;6.21;100.00;103722.41;4888369;29;20879;-81
2023/12/16 06:03:29;;;;;;;21.42;5.38;;;;;;;6.19;100.00;103717.09;4888567;29;20139;-81
2023/12/16 06:05:54;;;;;;;24.38;6.38;;;;;;;6.17;100.00;103715.34;4894631;29;20037;-81
2023/12/16 06:08:19;;;;;;;23.92;6.00;;;;;;;6.13;100.00;103717.16;4879410;29;20038;-81
2023/12/16 06:10:45;;;;;;;19.05;5.65;;;;;;;6.12;100.00;103715.41;4897225;29;20575;-82
2023/12/16 06:13:10;;;;;;;26.33;6.45;;;;;;;6.10;100.00;103722.50;4882201;29;20050;-82
2023/12/16 06:15:35;;;;;;;23.23;5.95;;;;;;;6.10;100.00;103734.06;4876607;29;20095;-82
2023/12/16 06:18:03;;;;;;;24.52;6.10;;;;;;;6.09;100.00;103728.75;4885013;29;20075;-82
2023/12/16 06:20:30;;;;;;;26.85;6.35;;;;;;;6.08;100.00;103732.34;4885737;29;20024;-82
2023/12/16 06:22:55;;;;;;;20.30;6.22;;;;;;;6.08;100.00;103732.34;4884405;29;20062;-81
2023/12/16 06:25:20;;;;;;;19.80;5.80;;;;;;;6.08;100.00;103729.66;4902072;29;20165;-82
2023/12/16 06:27:45;;;;;;;23.52;6.78;;;;;;;6.09;100.00;103726.97;4879813;29;20024;-81
2023/12/16 06:30:12;;;;;;;18.27;5.25;;;;;;;6.07;100.00;103722.53;4904342;29;20028;-81
2023/12/16 06:32:37;;;;;;;19.40;6.07;;;;;;;6.06;100.00;103723.44;4880143;29;20047;-81
2023/12/16 06:35:03;;;;;;;19.08;5.38;;;;;;;6.03;100.00;103721.69;4878010;29;20024;-81
2023/12/16 06:37:28;;;;;;;20.88;6.22;;;;;;;6.04;100.00;103727.91;4902765;29;20370;-85
2023/12/16 06:39:54;;;;;;;22.17;5.30;;;;;;;6.04;100.00;103727.91;4879481;29;20037;-86
2023/12/16 06:42:20;;;;;;;21.23;5.30;;;;;;;6.02;100.00;103727.00;4892581;29;20457;-86
2023/12/16 06:44:45;;;;;;;19.35;5.35;;;;;;;5.99;100.00;103729.72;4883356;29;20521;-86
2023/12/16 06:47:11;;;;;;;18.25;5.10;;;;;;;5.98;100.00;103723.50;4880790;29;20024;-86
2023/12/16 06:49:37;;;;;;;21.33;5.53;;;;;;;5.97;100.00;103715.47;4875701;29;20032;-85
2023/12/16 06:52:02;;;;;;;20.27;5.97;;;;;;;5.96;100.00;103722.59;4894653;29;20027;-86
2023/12/16 06:54:28;;;;;;;19.13;5.03;;;;;;;5.97;100.00;103715.47;4901556;29;20349;-85
2023/12/16 06:56:53;;;;;;;23.67;6.13;;;;;;;5.95;100.00;103723.50;4884229;29;20139;-86
2023/12/16 06:59:18;;;;;;;18.05;5.50;;;;;;;5.94;100.00;103729.72;4874990;29;20434;-86
2023/12/16 07:01:43;;;;;;;21.73;5.40;;;;;;;5.91;100.00;103733.28;4896595;29;20093;-85
2023/12/16 07:04:09;;;;;;;23.17;6.60;;;;;;;5.87;100.00;103731.56;4900356;29;20032;-86
2023/12/16 07:06:35;;;;;;;18.50;5.07;;;;;;;5.86;100.00;103734.25;4892495;29;20119;-86
2023/12/16 07:09:00;;;;;;;22.83;5.60;;;;;;;5.85;100.00;103736.00;4896457;29;20451;-85
2023/12/16 07:11:25;;;;;;;21.08;5.70;;;;;;;5.85;100.00;103733.34;4903506;29;20481;-85
2023/12/16 07:13:50;;;;;;;23.60;5.15;;;;;;;5.84;100.00;103739.59;4878658;29;20172;-86
2023/12/16 07:16:16;;;;;;;27.13;5.80;;;;;;;5.83;100.00;103734.25;4899494;29;20048;-87
2023/12/16 07:18:42;;;;;;;18.00;5.90;;;;;;;5.83;100.00;103735.16;4894365;29;20067;-86
2023/12/16 07:21:07;;;;;;;18.73;5.35;;;;;;;5.85;100.00;103737.81;4891134;29;20392;-85
2023/12/16 07:23:33;;;;;;;21.77;5.60;;;;;;;5.84;100.00;103744.03;4904533;29;20583;-85
2023/12/16 07:25:59;;;;;;;18.63;5.22;;;;;;;5.84;100.00;103739.59;4894061;29;20432;-85
2023/12/16 07:28:24;;;;;;;22.90;5.40;;;;;;;5.81;100.00;103739.59;4897623;29;20080;-84
2023/12/16 07:30:50;;;;;;;23.65;5.00;;;;;;;5.84;100.00;103742.28;4877656;29;20183;-85
2023/12/16 07:33:15;;;;;;;23.80;5.97;;;;;;;5.83;100.00;103751.16;4906019;29;20036;-85
2023/12/16 07:35:40;;;;;;;19.73;5.03;;;;;;;5.80;100.00;103750.28;4899329;29;20043;-85
2023/12/16 07:38:07;;;;;;;19.05;5.28;;;;;;;5.79;100.00;103762.75;4892919;29;20048;-86
2023/12/16 07:40:34;;;;;;;18.15;5.07;;;;;;;5.79;100.00;103757.41;4886367;29;20116;-85
2023/12/16 07:42:59;;;;;;;20.08;5.60;;;;;;;5.78;100.00;103761.88;4870113;29;20039;-84
2023/12/16 07:45:25;;;;;;;20.85;5.60;;;;;;;5.78;100.00;103750.28;4898784;29;20648;-86
2023/12/16 07:47:50;;;;;;;21.60;5.97;;;;;;;5.78;100.00;103752.97;4900649;29;20032;-82
2023/12/16 07:50:16;;;;;;;21.30;4.95;;;;;;;5.77;100.00;103761.88;4882129;29;20040;-81
2023/12/16 07:52:41;;;;;;;17.05;4.55;;;;;;;5.76;100.00;103752.97;4902218;29;20040;-81
2023/12/16 07:55:07;;;;;;;17.42;4.78;;;;;;;5.76;100.00;103760.09;4898848;29;20040;-82
2023/12/16 07:57:32;;;;;;;15.23;4.53;;;;;;;5.75;100.00;103759.22;4886480;29;20130;-81
2023/12/16 07:59:58;;;;;;;21.92;5.28;;;;;;;5.78;100.00;103758.28;4886155;29;20072;-81
2023/12/16 08:02:23;;;;;;;20.13;5.05;;;;;;;5.79;100.00;103752.06;4892961;29;20040;-81
2023/12/16 08:04:49;;;;;;;16.60;5.38;;;;;;;5.79;100.00;103762.75;4897511;29;20448;-82
2023/12/16 08:07:15;;;;;;;23.42;5.85;;;;;;;5.80;100.00;103767.19;4897167;29;20024;-81
2023/12/16 08:09:40;;;;;;;18.98;5.28;;;;;;;5.82;100.00;103768.06;4893304;29;20579;-81
2023/12/16 08:12:06;;;;;;;18.85;5.07;;;;;;;5.81;100.00;103776.97;4895512;29;20028;-81
2023/12/16 08:14:31;;;;;;;17.77;5.20;;;;;;;5.82;100.00;103778.75;4895065;29;20549;-81
2023/12/16 08:16:56;;;;;;;21.55;5.85;;;;;;;5.84;100.00;103782.31;4897944;29;20043;-81
2023/12/16 08:19:22;;;;;;;19.40;4.78;;;;;;;5.88;100.00;103781.38;4899973;29;20123;-81
2023/12/16 08:21:47;;;;;;;20.95;5.10;;;;;;;5.90;100.00;103787.59;4885659;29;20165;-81
2023/12/16 08:24:13;;;;;;;19.80;5.45;;;;;;;5.91;100.00;103778.66;4892771;29;20032;-81
2023/12/16 08:26:38;;;;;;;19.65;5.32;;;;;;;5.93;100.00;103784.91;4903324;29;20024;-81
2023/12/16 08:29:04;;;;;;;24.33;5.85;;;;;;;5.98;100.00;103790.25;4894539;29;20024;-82
2023/12/16 08:31:29;;;;;;;21.08;5.28;;;;;;;6.02;100.00;103796.44;4899879;29;20083;-81
2023/12/16 08:33:54;;;;;;;21.13;4.85;;;;;;;6.05;100.00;103797.31;4886035;29;20078;-81
2023/12/16 08:36:20;;;;;;;16.83;4.32;;;;;;;6.10;100.00;103797.28;4876935;29;20492;-81
2023/12/16 08:38:45;;;;;;;21.38;5.07;;;;;;;6.15;100.00;103795.47;4884646;29;20138;-81
2023/12/16 08:41:10;;;;;;;19.40;5.25;;;;;;;6.19;100.00;103793.66;4883762;29;20032;-81
2023/12/16 08:43:36;;;;;;;24.27;4.85;;;;;;;6.24;100.00;103794.53;4901230;29;20425;-81
2023/12/16 08:46:02;;;;;;;21.50;5.53;;;;;;;6.28;100.00;103797.16;4898670;29;20064;-82
2023/12/16 08:48:28;;;;;;;21.63;5.28;;;;;;;6.33;100.00;103788.22;4891123;29;20032;-81
2023/12/16 08:50:56;;;;;;;17.80;4.88;;;;;;;6.37;100.00;103784.59;4878630;29;20053;-81
2023/12/16 08:53:22;;;;;;;24.70;5.78;;;;;;;6.42;100.00;103790.81;4882048;29;20028;-81
2023/12/16 08:55:47;;;;;;;22.13;4.82;;;;;;;6.43;100.00;103787.25;4894958;29;20037;-82
2023/12/16 08:58:12;;;;;;;18.05;5.40;;;;;;;6.51;100.00;103784.50;4909940;29;20024;-81
2023/12/16 09:00:38;;;;;;;20.45;5.03;;;;;;;6.52;100.00;103779.13;4896005;29;20036;-79
2023/12/16 09:03:03;;;;;;;16.27;4.93;;;;;;;6.56;100.00;103780.88;4900547;29;20060;-80
2023/12/16 09:05:31;;;;;;;20.60;5.95;;;;;;;6.59;100.00;103779.97;4898398;29;20038;-82
2023/12/16 09:07:56;;;;;;;26.58;5.88;;;;;;;6.61;100.00;103799.53;4913173;29;20025;-80
2023/12/16 09:10:22;;;;;;;19.80;5.45;;;;;;;6.64;100.00;103803.06;4911894;29;20020;-80
2023/12/16 09:12:47;;;;;;;24.73;6.00;;;;;;;6.68;100.00;103801.28;4894995;29;20039;-80
2023/12/16 09:15:13;;;;;;;21.90;6.22;;;;;;;6.72;100.00;103800.34;4917043;29;20024;-80
2023/12/16 09:17:38;;;;;;;24.88;5.53;;;;;;;6.77;100.00;103802.97;4914133;29;20051;-79
2023/12/16 09:20:05;;;;;;;18.85;5.63;;;;;;;6.80;100.00;103805.59;4899718;29;20016;-82
2023/12/16 09:22:30;;;;;;;22.02;5.35;;;;;;;6.82;100.00;103799.34;4908239;29;20100;-80
2023/12/16 09:24:55;;;;;;;17.90;4.55;;;;;;;6.87;100.00;103798.38;4912950;29;20044;-80
2023/12/16 09:27:21;;;;;;;30.20;6.38;;;;;;;6.88;100.00;103809.09;4914566;29;20084;-82
2023/12/16 09:29:46;;;;;;;23.55;5.82;;;;;;;6.92;100.00;103805.47;4919584;29;20037;-80
2023/12/16 09:32:11;;;;;;;24.35;5.07;;;;;;;6.94;100.00;103811.72;4910808;29;20028;-81
2023/12/16 09:34:36;;;;;;;20.02;5.65;;;;;;;6.97;100.00;103810.78;4909066;29;20041;-81
2023/12/16 09:37:02;;;;;;;20.15;5.78;;;;;;;6.99;100.00;103817.88;4912272;29;20126;-80
2023/12/16 09:39:27;;;;;;;22.85;5.75;;;;;;;7.00;100.00;103825.00;4907359;29;20049;-81
2023/12/16 09:41:56;;;;;;;21.45;5.43;;;;;;;7.07;100.00;103819.59;4890774;29;20030;-80
2023/12/16 09:44:24;;;;;;;18.25;5.30;;;;;;;7.11;100.00;103824.00;4895805;29;20025;-80
2023/12/16 09:46:50;;;;;;;21.05;5.35;;;;;;;7.15;100.00;103817.72;4913828;29;20095;-82
2023/12/16 09:49:16;;;;;;;22.45;5.28;;;;;;;7.17;100.00;103818.59;4893044;29;20024;-81
2023/12/16 09:51:42;;;;;;;28.15;6.72;;;;;;;7.20;100.00;103817.66;4913421;29;20079;-82
2023/12/16 09:54:08;;;;;;;22.67;6.07;;;;;;;7.23;100.00;103821.19;4913201;29;20031;-80
2023/12/16 09:56:33;;;;;;;24.33;5.50;;;;;;;7.25;100.00;103824.75;4913001;29;20020;-81
2023/12/16 09:59:00;;;;;;;22.92;6.50;;;;;;;7.28;100.00;103830.06;4910678;29;20028;-81
2023/12/16 10:01:25;;;;;;;21.98;6.28;;;;;;;7.31;100.00;103830.00;4918271;29;20045;-81
2023/12/16 10:03:52;;;;;;;24.77;6.10;;;;;;;7.32;100.00;103837.16;4913859;29;20040;-80
2023/12/16 10:06:17;;;;;;;24.73;7.00;;;;;;;7.37;100.00;103839.75;4913162;29;20092;-81
2023/12/16 10:08:43;;;;;;;21.98;5.82;;;;;;;7.39;100.00;103837.06;4897385;29;20033;-81
2023/12/16 10:11:08;;;;;;;21.35;5.70;;;;;;;7.45;100.00;103831.63;4906011;29;20025;-81
2023/12/16 10:13:53;;;;;;;23.23;5.75;;;;;;;7.49;100.00;103831.56;4898251;29;20442;-82
2023/12/16 10:16:23;;;;;;;20.73;6.10;;;;;;;7.51;100.00;103828.88;4878148;29;20059;-82
2023/12/16 10:18:50;;;;;;;;;;;;;;;7.58;100.00;103827.03;4907140;29;20028;-81
2023/12/16 10:21:23;;;;;;;17.50;5.70;;;;;;;7.58;100.00;103838.59;4896885;29;19915;-81
2023/12/16 10:23:49;;;;;;;24.33;7.63;;;;;;;7.61;100.00;103838.56;4884813;29;20438;-81
2023/12/16 10:26:14;;;;;;;21.30;6.55;;;;;;;7.62;100.00;103836.78;4900947;29;20046;-82
2023/12/16 10:28:39;;;;;;;26.85;6.72;;;;;;;7.63;100.00;103828.75;4905919;29;20420;-81
2023/12/16 10:31:05;;;;;;;30.25;8.35;;;;;;;7.67;100.00;103838.50;4905597;29;20040;-82
2023/12/16 10:33:30;;;;;;;27.85;7.18;;;;;;;7.68;100.00;103826.88;4906028;29;20032;-82
2023/12/16 10:35:56;;;;;;;23.50;6.47;;;;;;;7.72;100.00;103830.41;4895006;29;20036;-81
2023/12/16 10:38:21;;;;;;;26.75;6.50;;;;;;;7.76;100.00;103831.25;4905060;29;20044;-81
2023/12/16 10:40:46;;;;;;;26.83;7.90;;;;;;;7.78;100.00;103824.97;4895142;29;20035;-81
2023/12/16 10:43:12;;;;;;;22.83;7.47;;;;;;;7.82;100.00;103829.38;4905676;29;20433;-82
2023/12/16 10:45:40;;;;;;;21.50;6.68;;;;;;;7.84;100.00;103824.00;4890152;29;20034;-82
2023/12/16 10:48:10;;;;;;;26.52;7.13;;;;;;;7.86;100.00;103822.16;4911241;29;20054;-82
2023/12/16 10:50:40;;;;;;;;;;;;;;;7.92;100.00;103811.41;4908655;29;20038;-81
2023/12/16 10:53:09;;;;;;;32.40;7.85;;;;;;;7.91;100.00;103823.00;4891822;29;19931;-82
2023/12/16 10:55:42;;;;;;;28.42;7.57;;;;;;;7.92;100.00;103824.78;4898713;29;20028;-82
2023/12/16 10:58:28;;;;;;;23.73;7.55;;;;;;;7.94;100.00;103808.69;4903337;29;20036;-82
2023/12/16 11:01:05;;;;;;;22.33;7.05;;;;;;;7.96;100.00;103813.09;4887811;29;20442;-82
2023/12/16 11:03:37;;;;;;;29.15;7.78;;;;;;;7.98;100.00;103813.06;4900376;29;20056;-82
2023/12/16 11:06:07;;;;;;;22.70;6.50;;;;;;;7.99;100.00;103807.69;4906365;29;20021;-82
2023/12/16 11:08:35;;;;;;;24.60;6.82;;;;;;;8.00;100.00;103801.44;4883747;29;20029;-82
2023/12/16 11:11:01;;;;;;;22.40;6.32;;;;;;;8.02;100.00;103810.34;4898349;29;20025;-81
2023/12/16 11:13:28;;;;;;;20.77;6.70;;;;;;;8.03;100.00;103801.38;4893406;29;20183;-82
2023/12/16 11:16:02;;;;;;;25.48;8.18;;;;;;;8.07;100.00;103801.34;4903124;29;20030;-81